Flight Track Log - Related Links

Times and Time Zones

All times are in EDT time to prevent confusion due to time zone crossing. See the DAL3698 flight status page for this flight to view local times or setup timezone preferences in your user account.

Time Position Orientation Groundspeed Altitude Reporting Facility
EDT Latitude Longitude Course Direction KTS MPH feet Rate Location/Type
Tue 07:30:38 AM 42.8406 -84.5717 279° West 229 264 3,900  Level Chicago Center
Tue 07:31:38 AM 42.8361 -84.6564 266° West 226 260 5,900 2,380 Climbing Chicago Center
Tue 07:32:39 AM 42.8303 -84.7517 265° West 247 284 8,700 2,537 Climbing Chicago Center
Tue 07:33:41 AM 42.8256 -84.8531 266° West 262 302 11,100 2,488 Climbing Chicago Center
Tue 07:34:42 AM 42.8197 -84.9594 266° West 277 319 13,800 2,390 Climbing Chicago Center
Tue 07:35:00 AM 42.8033 -85.6520 279° West  Level FlightAware Approximate
Tue 07:35:44 AM 42.8278 -85.0669 276° West 301 346 16,000  Level Chicago Center
Tue 07:36:45 AM 42.8633 -85.1950 291° West 303 349 18,100 1,463 Climbing Chicago Center
Tue 07:37:47 AM 42.8947 -85.3092 291° West 316 364 19,000 1,317 Climbing Chicago Center
Tue 07:38:48 AM 42.9283 -85.4308 291° West 336 387 20,800 1,561 Climbing Chicago Center
Tue 07:39:50 AM 42.9611 -85.5478 291° West 334 384 22,200 1,268 Climbing Chicago Center
Tue 07:40:51 AM 42.9936 -85.6636 291° West 330 380 23,400 1,024 Climbing Chicago Center
Tue 07:41:53 AM 43.0264 -85.7806 291° West 331 381 24,300 1,024 Climbing Chicago Center
Tue 07:42:54 AM 43.0589 -85.8989 291° West 336 387 25,500 1,122 Climbing Chicago Center
Tue 07:43:56 AM 43.0922 -86.0172 291° West 328 377 26,600 1,073 Climbing Chicago Center
Tue 07:44:57 AM 43.1256 -86.1442 290° West 324 373 27,700 683 Climbing Chicago Center
Tue 07:45:59 AM 43.1561 -86.2581 290° West 320 368 28,000 390 Climbing Chicago Center
Tue 07:47:00 AM 43.1878 -86.3747 290° West 327 376 28,500 585 Climbing Chicago Center
Tue 07:48:02 AM 43.2197 -86.4925 290° West 330 380 29,200 732 Climbing Chicago Center
Tue 07:49:03 AM 43.2561 -86.6306 290° West 322 371 30,000 390 Climbing Chicago Center
Tue 07:50:05 AM 43.2864 -86.7472 290° West 326 375 30,000  Level Chicago Center
Tue 07:51:06 AM 43.3181 -86.8664 290° West 330 380 30,000  Level Chicago Center
Tue 07:52:08 AM 43.3494 -86.9878 290° West 338 389 30,000  Level Chicago Center
Tue 07:53:10 AM 43.3633 -87.1125 279° West 334 384 30,000  Level Chicago Center
Tue 07:54:11 AM 43.3792 -87.2381 280° West 336 387 30,000  Level Chicago Center
Tue 07:55:13 AM 43.3978 -87.3800 280° West 335 386 30,000  Level Chicago Center
Tue 07:56:14 AM 43.4156 -87.5056 281° West 334 384 30,000  Level Chicago Center
Tue 07:57:16 AM 43.4350 -87.6314 282° West 335 386 30,000  Level Chicago Center
Tue 07:58:17 AM 43.4542 -87.7578 282° West 336 387 30,000  Level Chicago Center
Tue 07:59:19 AM 43.4739 -87.8839 282° West 337 388 30,000  Level Chicago Center
Tue 08:00:20 AM 43.4983 -88.0278 283° West 330 380 30,000  Level Chicago Center
Tue 08:01:22 AM 43.5186 -88.1511 283° West 330 380 30,000  Level Chicago Center
Tue 08:02:23 AM 43.5383 -88.2747 282° West 331 381 30,000  Level Chicago Center
Tue 08:03:25 AM 43.5581 -88.3986 282° West 335 386 30,000  Level Chicago Center
Tue 08:04:28 AM 43.5789 -88.5250 283° West 343 395 30,000  Level Chicago Center
Tue 08:05:28 AM 43.6031 -88.6756 283° West 349 402 30,000  Level Chicago Center
Tue 08:06:30 AM 43.6344 -88.8014 289° West 353 406 30,000  Level Chicago Center
Tue 08:07:15 AM 43.6733 -88.8797 304° West 367 422 30,000  Level Minneapolis Center
Tue 08:08:16 AM 43.7314 -88.9956 305° West 368 423 30,000  Level Minneapolis Center
Tue 08:09:18 AM 43.7875 -89.1117 304° West 364 419 30,000  Level Minneapolis Center
Tue 08:10:19 AM 43.8531 -89.2458 304° West 361 415 30,000  Level Minneapolis Center
Tue 08:11:20 AM 43.9081 -89.3594 304° West 355 409 30,000  Level Minneapolis Center
Tue 08:12:22 AM 43.9625 -89.4739 303° West 357 411 30,000  Level Minneapolis Center
Tue 08:13:23 AM 44.0178 -89.5883 304° West 356 410 30,000  Level Minneapolis Center
Tue 08:14:24 AM 44.0725 -89.7011 304° West 353 406 30,000  Level Minneapolis Center
Tue 08:15:26 AM 44.1264 -89.8153 303° West 352 405 30,000  Level Minneapolis Center
Tue 08:16:27 AM 44.1817 -89.9275 305° West 352 405 30,000  Level Minneapolis Center
Tue 08:17:28 AM 44.2358 -90.0425 303° West 354 407 30,000  Level Minneapolis Center
Tue 08:18:30 AM 44.2981 -90.1756 303° West 351 404 30,000  Level Minneapolis Center
Tue 08:19:31 AM 44.3519 -90.2900 303° West 351 404 30,000  Level Minneapolis Center
Tue 08:20:33 AM 44.4058 -90.4042 303° West 351 404 30,000  Level Minneapolis Center
Tue 08:21:34 AM 44.4594 -90.5189 303° West 353 406 30,000 -683 Level Minneapolis Center
Tue 08:22:36 AM 44.5103 -90.6350 302° West 350 403 28,600 -1,659 Descending Minneapolis Center
Tue 08:23:37 AM 44.5489 -90.7542 294° West 340 391 26,600 -2,066 Descending Minneapolis Center
Tue 08:24:38 AM 44.5931 -90.8861 295° West 339 390 24,400 -1,415 Descending Minneapolis Center
Tue 08:25:40 AM 44.6311 -90.9967 296° West 326 375 23,700 -1,610 Descending Minneapolis Center
Tue 08:26:41 AM 44.6678 -91.1078 295° West 316 364 21,100 -2,356 Descending Minneapolis Center
Tue 08:27:55 AM 44.7097 -91.2369 295° West 332 382 18,400 -2,250 Descending Minneapolis Center
Tue 08:28:57 AM 44.7567 -91.3844 294° West 340 391 16,000 -1,220 Descending Minneapolis Center
Tue 08:29:58 AM 44.7989 -91.5106 295° West 343 395 15,900 -49 Descending Minneapolis Center
Tue 08:30:59 AM 44.8317 -91.6111 295° West 353 406 15,900  Level Minneapolis Center
Tue 08:32:01 AM 44.8836 -91.7661 295° West 350 403 15,900 50 Level Minneapolis Center
Tue 08:32:58 AM 44.9314 -91.8819 300° West 361 415 16,000 -312 Climbing FAA TRACON SMA TRACON (SMA)
Tue 08:33:18 AM 44.9414 -91.9308 286° West 354 407 15,500 -1,500 Descending FAA TRACON SMA TRACON (SMA)
Tue 08:33:38 AM 44.9575 -91.9717 299° West 362 417 15,000 -1,500 Descending FAA TRACON SMA TRACON (SMA)
Tue 08:33:58 AM 44.9686 -92.0114 292° West 360 414 14,500 -1,800 Descending FAA TRACON SMA TRACON (SMA)
Tue 08:34:18 AM 44.9850 -92.0606 295° West 361 415 13,800 -1,950 Descending FAA TRACON SMA TRACON (SMA)
Tue 08:34:38 AM 44.9956 -92.0986 291° West 351 404 13,200 -1,650 Descending FAA TRACON SMA TRACON (SMA)
Tue 08:34:58 AM 45.0092 -92.1372 297° West 350 403 12,700 -1,800 Descending FAA TRACON SMA TRACON (SMA)
Tue 08:35:38 AM 45.0339 -92.2225 292° West 343 395 11,400 -1,600 Descending FAA TRACON SMA TRACON (SMA)
Tue 08:35:58 AM 45.0472 -92.2608 296° West 345 397 11,100 -600 Descending FAA TRACON SMA TRACON (SMA)
Tue 08:36:18 AM 45.0486 -92.3097 272° West 337 388 11,000 -150 Descending FAA TRACON SMA TRACON (SMA)
Tue 08:36:38 AM 45.0439 -92.3492 260° West 332 382 11,000 -450 Level FAA TRACON SMA TRACON (SMA)
Tue 08:36:58 AM 45.0378 -92.3961 260° West 320 368 10,700 -923 Descending FAA TRACON SMA TRACON (SMA)
Tue 08:37:17 AM 45.0297 -92.4300 251° West 302 348 10,400 -1,077 Descending FAA TRACON SMA TRACON (SMA)
Tue 08:37:37 AM 45.0136 -92.4569 230° Southwest 294 338 10,000 -1,463 Descending FAA TRACON SMA TRACON (SMA)
Tue 08:37:58 AM 44.9986 -92.4822 230° Southwest 285 328 9,400 -2,049 Descending FAA TRACON SMA TRACON (SMA)
Tue 08:38:18 AM 44.9756 -92.5128 223° Southwest 285 328 8,600 -2,100 Descending FAA TRACON SMA TRACON (SMA)
Tue 08:38:38 AM 44.9594 -92.5381 228° Southwest 285 328 8,000 -1,800 Descending FAA TRACON SMA TRACON (SMA)
Tue 08:38:58 AM 44.9428 -92.5633 227° Southwest 287 330 7,400 -1,350 Descending FAA TRACON SMA TRACON (SMA)
Tue 08:39:18 AM 44.9189 -92.5911 219° Southwest 288 331 7,100 -600 Descending FAA TRACON SMA TRACON (SMA)
Tue 08:39:38 AM 44.8997 -92.6072 211° Southwest 278 320 7,000 -150 Descending FAA TRACON SMA TRACON (SMA)
Tue 08:39:58 AM 44.8792 -92.6225 208° Southwest 273 314 7,000 -146 Level FAA TRACON SMA TRACON (SMA)
Tue 08:40:19 AM 44.8567 -92.6400 209° Southwest 249 287 6,900 -900 Descending FAA TRACON SMA TRACON (SMA)
Tue 08:40:38 AM 44.8386 -92.6542 209° Southwest 241 277 6,400 -1,385 Descending FAA TRACON SMA TRACON (SMA)
Tue 08:40:58 AM 44.8203 -92.6686 209° Southwest 241 277 6,000 -1,500 Descending FAA TRACON SMA TRACON (SMA)
Tue 08:41:18 AM 44.7978 -92.6869 210° Southwest 239 275 5,400 -1,650 Descending FAA TRACON SMA TRACON (SMA)
Tue 08:41:38 AM 44.7797 -92.7011 209° Southwest 241 277 4,900 -1,050 Descending FAA TRACON SMA TRACON (SMA)
Tue 08:41:58 AM 44.7639 -92.7144 211° Southwest 230 265 4,700 -900 Descending FAA TRACON SMA TRACON (SMA)
Tue 08:42:18 AM 44.7458 -92.7342 218° Southwest 220 253 4,300 -1,024 Descending FAA TRACON SMA TRACON (SMA)
Tue 08:42:39 AM 44.7433 -92.7567 261° West 216 249 4,000 -439 Descending FAA TRACON SMA TRACON (SMA)
Tue 08:42:59 AM 44.7444 -92.7803 274° West 195 224 4,000  Level FAA TRACON SMA TRACON (SMA)
Tue 08:43:18 AM 44.7469 -92.8097 277° West 195 224 4,000  Level FAA TRACON SMA TRACON (SMA)
Tue 08:43:38 AM 44.7489 -92.8339 276° West 201 231 4,000  Level FAA TRACON SMA TRACON (SMA)
Tue 08:43:58 AM 44.7508 -92.8569 277° West 198 228 4,000  Level FAA TRACON SMA TRACON (SMA)
Tue 08:44:19 AM 44.7528 -92.8858 275° West 192 221 4,000  Level FAA TRACON SMA TRACON (SMA)
Tue 08:44:38 AM 44.7564 -92.9081 283° West 192 221 4,000  Level FAA TRACON SMA TRACON (SMA)
Tue 08:44:59 AM 44.7636 -92.9278 297° West 187 215 4,000  Level FAA TRACON SMA TRACON (SMA)
Tue 08:45:18 AM 44.7753 -92.9500 306° West 183 211 4,000  Level FAA TRACON SMA TRACON (SMA)
Tue 08:45:38 AM 44.7839 -92.9689 303° West 184 212 4,000  Level FAA TRACON SMA TRACON (SMA)
Tue 08:45:58 AM 44.7919 -92.9875 301° West 183 211 4,000  Level FAA TRACON SMA TRACON (SMA)
Tue 08:46:18 AM 44.8014 -93.0106 300° West 176 203 4,000 -439 Level FAA TRACON SMA TRACON (SMA)
Tue 08:46:39 AM 44.8092 -93.0281 302° West 174 200 3,700 -857 Descending FAA TRACON SMA TRACON (SMA)

Login

Don't have an account? Register now (free) for customized features, flight alerts, and more!